createdAt,value
2023-02-26T00:00:03.846Z,1010.1
2023-02-26T00:01:03.863Z,1010.2
2023-02-26T00:02:03.896Z,1010.2
2023-02-26T00:03:03.955Z,1010.2
2023-02-26T00:04:03.938Z,1010.2
2023-02-26T00:05:03.899Z,1010.1
2023-02-26T00:06:03.979Z,1010.1
2023-02-26T00:07:03.914Z,1010.2
2023-02-26T00:08:03.962Z,1010.2
2023-02-26T00:09:04.002Z,1010.2
2023-02-26T00:10:04.027Z,1010.2
2023-02-26T00:11:04.124Z,1010.3
2023-02-26T00:12:03.957Z,1010.3
2023-02-26T00:13:04.160Z,1010.4
2023-02-26T00:14:04.280Z,1010.3
2023-02-26T00:15:03.993Z,1010.3
2023-02-26T00:16:04.003Z,1010.3
2023-02-26T00:17:04.121Z,1010.3
2023-02-26T00:18:04.019Z,1010.3
2023-02-26T00:19:04.099Z,1010.4
2023-02-26T00:20:04.036Z,1010.3
2023-02-26T00:21:04.050Z,1010.3
2023-02-26T00:22:04.057Z,1010.4
2023-02-26T00:23:04.074Z,1010.4
2023-02-26T00:24:04.081Z,1010.4
2023-02-26T00:25:04.087Z,1010.4
2023-02-26T00:26:04.100Z,1010.4
2023-02-26T00:27:04.117Z,1010.4
2023-02-26T00:28:04.144Z,1010.5
2023-02-26T00:29:04.214Z,1010.5
2023-02-26T00:30:04.187Z,1010.5
2023-02-26T00:31:04.247Z,1010.5
2023-02-26T00:32:04.450Z,1010.5
2023-02-26T00:33:04.190Z,1010.5
2023-02-26T00:34:04.198Z,1010.5
2023-02-26T00:35:04.212Z,1010.6
2023-02-26T00:36:04.244Z,1010.6
2023-02-26T00:37:04.245Z,1010.6
2023-02-26T00:38:04.299Z,1010.6
2023-02-26T00:39:04.277Z,1010.7
2023-02-26T00:40:04.281Z,1010.6
2023-02-26T00:41:04.422Z,1010.7
2023-02-26T00:42:04.312Z,1010.7
2023-02-26T00:43:04.324Z,1010.8
2023-02-26T00:44:04.332Z,1010.7
2023-02-26T00:45:04.362Z,1010.8
2023-02-26T00:46:04.462Z,1010.8
2023-02-26T00:47:04.364Z,1010.8
2023-02-26T00:48:04.390Z,1010.8
2023-02-26T00:49:04.392Z,1010.8
2023-02-26T00:50:04.424Z,1010.8
2023-02-26T00:51:04.428Z,1010.9
2023-02-26T00:52:04.466Z,1011.0
2023-02-26T00:53:04.461Z,1010.9
2023-02-26T00:54:04.472Z,1011.0
2023-02-26T00:55:04.474Z,1011.0
2023-02-26T00:56:04.500Z,1011.0
2023-02-26T00:57:04.495Z,1011.0
2023-02-26T00:58:04.529Z,1011.0
2023-02-26T00:59:04.526Z,1011.0
2023-02-26T01:00:04.626Z,1010.9
2023-02-26T01:01:04.542Z,1010.9
2023-02-26T01:02:04.608Z,1010.9
2023-02-26T01:03:04.570Z,1010.9
2023-02-26T01:04:04.858Z,1011.0
2023-02-26T01:05:04.595Z,1011.0
2023-02-26T01:06:04.600Z,1011.1
2023-02-26T01:07:04.610Z,1011.1
2023-02-26T01:08:04.627Z,1011.1
2023-02-26T01:09:04.653Z,1011.1
2023-02-26T01:10:04.630Z,1011.2
2023-02-26T01:11:04.644Z,1011.2
2023-02-26T01:12:04.651Z,1011.1
2023-02-26T01:13:04.664Z,1011.2
2023-02-26T01:14:04.698Z,1011.2
2023-02-26T01:15:04.694Z,1011.1
2023-02-26T01:16:04.785Z,1011.2
2023-02-26T01:17:04.725Z,1011.2
2023-02-26T01:18:06.837Z,1011.2
2023-02-26T01:19:04.735Z,1011.2
2023-02-26T01:20:04.769Z,1011.3
2023-02-26T01:21:04.866Z,1011.3
2023-02-26T01:22:04.760Z,1011.3
2023-02-26T01:23:04.787Z,1011.3
2023-02-26T01:24:04.794Z,1011.2
2023-02-26T01:25:04.799Z,1011.2
2023-02-26T01:26:04.830Z,1011.2
2023-02-26T01:27:04.822Z,1011.2
2023-02-26T01:28:04.838Z,1011.2
2023-02-26T01:29:04.842Z,1011.2
2023-02-26T01:30:04.869Z,1011.2
2023-02-26T01:31:05.051Z,1011.2
2023-02-26T01:32:05.296Z,1011.3
2023-02-26T01:33:04.879Z,1011.4
2023-02-26T01:34:04.885Z,1011.3
2023-02-26T01:35:04.907Z,1011.3
2023-02-26T01:36:04.908Z,1011.3
2023-02-26T01:37:04.930Z,1011.4
2023-02-26T01:38:04.939Z,1011.3
2023-02-26T01:39:04.960Z,1011.3
2023-02-26T01:40:04.964Z,1011.4
2023-02-26T01:41:04.965Z,1011.4
2023-02-26T01:42:04.983Z,1011.4
2023-02-26T01:59:05.534Z,1011.5
2023-02-26T02:00:05.245Z,1011.4
2023-02-26T02:01:05.194Z,1011.5
2023-02-26T02:02:05.204Z,1011.5
2023-02-26T02:03:05.492Z,1011.5
2023-02-26T02:20:05.732Z,1011.8
2023-02-26T02:21:05.402Z,1011.8
2023-02-26T02:22:05.420Z,1011.8
2023-02-26T02:23:05.428Z,1011.9
2023-02-26T02:24:05.430Z,1011.8
2023-02-26T02:25:05.424Z,1011.8
2023-02-26T02:26:05.575Z,1011.8
2023-02-26T02:27:05.464Z,1011.9
2023-02-26T02:28:05.694Z,1011.8
2023-02-26T02:29:05.663Z,1011.9
2023-02-26T02:30:05.499Z,1011.9
2023-02-26T02:31:05.904Z,1012.0
2023-02-26T02:32:05.925Z,1011.9
2023-02-26T02:33:05.551Z,1012.0
2023-02-26T02:34:06.022Z,1012.0
2023-02-26T02:35:05.559Z,1012.0
2023-02-26T02:36:05.573Z,1012.0
2023-02-26T02:37:05.582Z,1012.0
2023-02-26T02:38:05.610Z,1012.0
2023-02-26T02:39:05.609Z,1011.9
2023-02-26T02:40:05.617Z,1011.9
2023-02-26T02:41:05.636Z,1012.0
2023-02-26T02:42:05.636Z,1012.0
2023-02-26T02:43:05.765Z,1012.1
2023-02-26T02:44:05.666Z,1012.0
2023-02-26T02:45:05.676Z,1012.1
2023-02-26T02:46:05.838Z,1012.1
2023-02-26T02:47:05.877Z,1012.1
2023-02-26T02:48:13.084Z,1012.1
2023-02-26T02:49:05.724Z,1012.2
2023-02-26T02:50:05.731Z,1012.1
2023-02-26T02:51:05.765Z,1012.1
2023-02-26T02:52:05.759Z,1012.2
2023-02-26T02:53:05.771Z,1012.2
2023-02-26T02:54:05.776Z,1012.2
2023-02-26T02:55:05.789Z,1012.2
2023-02-26T02:56:05.890Z,1012.2
2023-02-26T02:57:05.809Z,1012.3
2023-02-26T02:58:05.850Z,1012.3
2023-02-26T02:59:05.839Z,1012.3
2023-02-26T03:00:05.846Z,1012.3
2023-02-26T03:01:05.955Z,1012.3
2023-02-26T03:02:05.944Z,1012.4
2023-02-26T03:03:05.870Z,1012.4
2023-02-26T03:04:05.889Z,1012.3
2023-02-26T03:05:05.954Z,1012.4
2023-02-26T03:06:05.969Z,1012.4
2023-02-26T03:07:05.927Z,1012.3
2023-02-26T03:08:05.939Z,1012.4
2023-02-26T03:09:05.989Z,1012.5
2023-02-26T03:10:05.966Z,1012.4
2023-02-26T03:11:05.990Z,1012.5
2023-02-26T03:12:05.992Z,1012.5
2023-02-26T03:13:06.016Z,1012.5
2023-02-26T03:14:06.021Z,1012.5
2023-02-26T03:15:06.032Z,1012.5
2023-02-26T03:16:06.129Z,1012.5
2023-02-26T03:17:06.060Z,1012.5
2023-02-26T03:18:06.078Z,1012.4
2023-02-26T03:19:06.074Z,1012.5
2023-02-26T03:20:06.083Z,1012.5
2023-02-26T03:21:06.100Z,1012.5
2023-02-26T03:22:06.111Z,1012.5
2023-02-26T03:23:06.144Z,1012.6
2023-02-26T03:24:06.132Z,1012.5
2023-02-26T03:25:06.153Z,1012.5
2023-02-26T03:26:06.158Z,1012.5
2023-02-26T03:27:06.177Z,1012.6
2023-02-26T03:28:06.187Z,1012.6
2023-02-26T03:29:06.203Z,1012.6
2023-02-26T03:30:06.223Z,1012.6
2023-02-26T03:31:06.273Z,1012.6
2023-02-26T03:32:06.508Z,1012.7
2023-02-26T03:33:06.257Z,1012.7
2023-02-26T03:34:06.249Z,1012.7
2023-02-26T03:35:06.268Z,1012.6
2023-02-26T03:36:06.282Z,1012.7
2023-02-26T03:37:06.283Z,1012.8
2023-02-26T03:38:06.291Z,1012.7
2023-02-26T03:39:06.304Z,1012.8
2023-02-26T03:40:06.317Z,1012.7
2023-02-26T03:41:06.315Z,1012.7
2023-02-26T03:42:06.329Z,1012.8
2023-02-26T03:43:06.343Z,1012.8
2023-02-26T03:44:06.344Z,1012.8
2023-02-26T03:45:06.361Z,1012.8
2023-02-26T03:46:06.451Z,1012.9
2023-02-26T03:47:06.373Z,1012.9
2023-02-26T03:48:06.398Z,1013.0
2023-02-26T03:49:06.490Z,1012.9
2023-02-26T03:50:06.410Z,1012.9
2023-02-26T03:51:06.425Z,1013.0
2023-02-26T03:52:06.440Z,1012.9
2023-02-26T03:53:06.469Z,1013.0
2023-02-26T03:54:06.459Z,1012.9
2023-02-26T03:55:06.476Z,1013.0
2023-02-26T03:56:06.500Z,1013.0
2023-02-26T03:57:06.506Z,1013.0
2023-02-26T03:58:06.513Z,1013.0
2023-02-26T03:59:06.527Z,1013.0
2023-02-26T04:00:06.527Z,1013.0
2023-02-26T04:01:06.549Z,1013.1
2023-02-26T04:02:06.795Z,1013.0
2023-02-26T04:03:06.562Z,1013.1
2023-02-26T04:04:06.779Z,1013.1
2023-02-26T04:05:06.599Z,1013.2
2023-02-26T04:06:06.611Z,1013.0
2023-02-26T04:07:06.616Z,1013.0
2023-02-26T04:08:06.638Z,1013.1
2023-02-26T04:09:06.654Z,1013.2
2023-02-26T04:10:06.664Z,1013.2
2023-02-26T04:11:06.696Z,1013.2
2023-02-26T04:12:06.688Z,1013.2
2023-02-26T04:13:06.705Z,1013.2
2023-02-26T04:14:06.706Z,1013.3
2023-02-26T04:15:06.783Z,1013.3
2023-02-26T04:16:06.739Z,1013.2
2023-02-26T04:17:06.740Z,1013.2
2023-02-26T04:18:06.754Z,1013.2
2023-02-26T04:19:06.776Z,1013.3
2023-02-26T04:20:06.798Z,1013.3
2023-02-26T04:21:06.819Z,1013.3
2023-02-26T04:22:06.812Z,1013.3
2023-02-26T04:23:06.830Z,1013.3
2023-02-26T04:24:06.831Z,1013.4
2023-02-26T04:25:06.858Z,1013.3
2023-02-26T04:26:06.864Z,1013.3
2023-02-26T04:27:06.866Z,1013.4
2023-02-26T04:28:06.886Z,1013.3
2023-02-26T04:29:07.001Z,1013.3
2023-02-26T04:30:06.900Z,1013.4
2023-02-26T04:31:07.160Z,1013.4
2023-02-26T04:32:07.296Z,1013.4
2023-02-26T04:33:06.935Z,1013.4
2023-02-26T04:34:06.964Z,1013.3
2023-02-26T04:35:06.960Z,1013.4
2023-02-26T04:36:06.994Z,1013.4
2023-02-26T04:37:06.996Z,1013.5
2023-02-26T04:38:07.010Z,1013.5
2023-02-26T04:39:07.048Z,1013.5
2023-02-26T04:40:14.697Z,1013.5
2023-02-26T04:41:07.055Z,1013.5
2023-02-26T04:42:07.064Z,1013.5
2023-02-26T04:43:07.070Z,1013.6
2023-02-26T04:44:07.086Z,1013.5
2023-02-26T04:45:07.089Z,1013.5
2023-02-26T04:46:07.281Z,1013.6
2023-02-26T04:47:07.130Z,1013.6
2023-02-26T04:48:07.118Z,1013.6
2023-02-26T04:49:07.144Z,1013.6
2023-02-26T04:50:07.381Z,1013.6
2023-02-26T04:51:07.168Z,1013.6
2023-02-26T04:52:07.232Z,1013.7
2023-02-26T04:53:07.206Z,1013.7
2023-02-26T04:54:07.213Z,1013.7
2023-02-26T04:55:07.231Z,1013.7
2023-02-26T04:56:07.243Z,1013.7
2023-02-26T04:57:07.251Z,1013.7
2023-02-26T04:58:07.254Z,1013.7
2023-02-26T04:59:07.284Z,1013.7
2023-02-26T05:00:07.290Z,1013.8
2023-02-26T05:01:07.307Z,1013.8
2023-02-26T05:02:07.321Z,1013.9
2023-02-26T05:03:07.325Z,1013.8
2023-02-26T05:04:07.620Z,1013.8
2023-02-26T05:05:07.365Z,1013.8
2023-02-26T05:06:07.390Z,1013.8
2023-02-26T05:07:07.396Z,1013.9
2023-02-26T05:08:07.391Z,1013.9
2023-02-26T05:09:07.406Z,1013.8
2023-02-26T05:10:07.449Z,1013.9
2023-02-26T05:11:07.464Z,1013.9
2023-02-26T05:12:07.453Z,1013.9
2023-02-26T05:13:07.475Z,1013.9
2023-02-26T05:14:07.486Z,1013.9
2023-02-26T05:15:07.505Z,1014.0
2023-02-26T05:16:07.614Z,1014.0
2023-02-26T05:17:07.538Z,1014.1
2023-02-26T05:18:07.551Z,1014.0
2023-02-26T05:19:07.599Z,1014.0
2023-02-26T05:20:07.569Z,1014.0
2023-02-26T05:21:07.591Z,1014.0
2023-02-26T05:22:07.585Z,1014.1
2023-02-26T05:23:07.595Z,1014.1
2023-02-26T05:24:07.625Z,1014.1
2023-02-26T05:25:07.694Z,1014.1
2023-02-26T05:26:07.638Z,1014.1
2023-02-26T05:27:07.650Z,1014.2
2023-02-26T05:28:07.671Z,1014.2
2023-02-26T05:29:07.667Z,1014.1
2023-02-26T05:30:07.680Z,1014.1
2023-02-26T05:31:08.034Z,1014.2
2023-02-26T05:32:07.782Z,1014.2
2023-02-26T05:33:07.737Z,1014.2
2023-02-26T05:34:07.747Z,1014.2
2023-02-26T05:35:07.769Z,1014.3
2023-02-26T05:36:07.774Z,1014.3
2023-02-26T05:37:07.764Z,1014.3
2023-02-26T05:38:07.806Z,1014.2
2023-02-26T05:39:07.797Z,1014.3
2023-02-26T05:40:07.801Z,1014.3
2023-02-26T05:41:07.811Z,1014.3
2023-02-26T05:42:07.831Z,1014.4
2023-02-26T05:43:07.841Z,1014.4
2023-02-26T05:44:07.977Z,1014.3
2023-02-26T05:45:07.976Z,1014.3
2023-02-26T05:46:07.888Z,1014.4
2023-02-26T05:47:07.905Z,1014.4
2023-02-26T05:48:07.938Z,1014.4
2023-02-26T05:49:07.948Z,1014.4
2023-02-26T05:50:08.144Z,1014.4
2023-02-26T05:51:07.975Z,1014.5
2023-02-26T05:52:07.996Z,1014.4
2023-02-26T05:53:08.013Z,1014.4
2023-02-26T05:54:08.020Z,1014.5
2023-02-26T05:55:08.025Z,1014.6
2023-02-26T05:56:08.035Z,1014.6
2023-02-26T05:57:08.075Z,1014.6
2023-02-26T05:58:08.072Z,1014.6
2023-02-26T05:59:08.084Z,1014.6
2023-02-26T06:00:08.130Z,1014.5
2023-02-26T06:01:08.106Z,1014.6
2023-02-26T06:02:08.325Z,1014.6
2023-02-26T06:03:08.436Z,1014.5
2023-02-26T06:04:08.152Z,1014.6
2023-02-26T06:05:08.152Z,1014.7
2023-02-26T06:06:08.174Z,1014.7
2023-02-26T06:07:08.174Z,1014.6
2023-02-26T06:08:08.190Z,1014.7
2023-02-26T06:09:08.226Z,1014.7
2023-02-26T06:10:08.213Z,1014.8
2023-02-26T06:11:08.230Z,1014.7
2023-02-26T06:12:08.243Z,1014.8
2023-02-26T06:13:08.243Z,1014.8
2023-02-26T06:14:08.270Z,1014.9
2023-02-26T06:15:08.265Z,1014.7
2023-02-26T06:16:08.426Z,1014.8
2023-02-26T06:17:08.292Z,1014.8
2023-02-26T06:18:08.310Z,1014.8
2023-02-26T06:19:08.312Z,1014.9
2023-02-26T06:20:08.316Z,1014.8
2023-02-26T06:21:08.327Z,1014.8
2023-02-26T06:22:08.351Z,1014.9
2023-02-26T06:23:08.394Z,1014.9
2023-02-26T06:24:08.387Z,1014.9
2023-02-26T06:25:08.429Z,1014.9
2023-02-26T06:26:08.413Z,1014.8
2023-02-26T06:27:08.414Z,1014.8
2023-02-26T06:28:08.438Z,1014.9
2023-02-26T06:29:08.468Z,1014.9
2023-02-26T06:30:08.478Z,1015.0
2023-02-26T06:31:08.479Z,1015.0
2023-02-26T06:32:08.818Z,1015.0
2023-02-26T06:33:08.506Z,1015.0
2023-02-26T06:34:08.512Z,1015.1
2023-02-26T06:35:08.524Z,1015.1
2023-02-26T06:36:08.559Z,1015.1
2023-02-26T06:37:08.552Z,1015.2
2023-02-26T06:38:08.561Z,1015.1
2023-02-26T06:39:08.572Z,1015.2
2023-02-26T06:40:08.581Z,1015.2
2023-02-26T06:41:08.588Z,1015.1
2023-02-26T06:42:08.607Z,1015.2
2023-02-26T06:43:08.620Z,1015.2
2023-02-26T06:44:08.639Z,1015.2
2023-02-26T06:45:08.646Z,1015.2
2023-02-26T06:46:08.801Z,1015.2
2023-02-26T06:47:08.681Z,1015.2
2023-02-26T06:48:08.724Z,1015.2
2023-02-26T06:49:08.710Z,1015.3
2023-02-26T06:50:08.720Z,1015.3
2023-02-26T06:51:08.736Z,1015.3
2023-02-26T06:52:08.742Z,1015.3
2023-02-26T06:53:08.765Z,1015.3
2023-02-26T06:54:08.761Z,1015.4
2023-02-26T06:55:08.768Z,1015.3
2023-02-26T06:56:08.791Z,1015.3
2023-02-26T06:57:08.803Z,1015.4
2023-02-26T06:58:08.828Z,1015.4
2023-02-26T06:59:08.828Z,1015.4
2023-02-26T07:00:08.949Z,1015.5
2023-02-26T07:01:08.912Z,1015.4
2023-02-26T07:02:08.979Z,1015.4
2023-02-26T07:03:08.870Z,1015.5
2023-02-26T07:04:08.998Z,1015.4
2023-02-26T07:05:08.906Z,1015.4
2023-02-26T07:06:27.204Z,1015.4
2023-02-26T07:07:08.924Z,1015.5
2023-02-26T07:08:08.938Z,1015.5
2023-02-26T07:09:09.025Z,1015.5
2023-02-26T07:10:08.964Z,1015.5
2023-02-26T07:11:09.104Z,1015.6
2023-02-26T07:12:09.014Z,1015.5
2023-02-26T07:13:08.976Z,1015.6
2023-02-26T07:14:09.008Z,1015.6
2023-02-26T07:15:09.027Z,1015.6
2023-02-26T07:16:09.016Z,1015.6
2023-02-26T07:17:09.313Z,1015.7
2023-02-26T07:18:09.041Z,1015.7
2023-02-26T07:19:09.053Z,1015.7
2023-02-26T07:20:09.054Z,1015.8
2023-02-26T07:21:09.088Z,1015.8
2023-02-26T07:22:09.128Z,1015.8
2023-02-26T07:23:09.090Z,1015.7
2023-02-26T07:24:09.125Z,1015.7
2023-02-26T07:25:09.113Z,1015.8
2023-02-26T07:26:09.208Z,1015.8
2023-02-26T07:27:09.248Z,1015.8
2023-02-26T07:28:09.221Z,1015.8
2023-02-26T07:29:09.172Z,1015.7
2023-02-26T07:30:09.232Z,1015.8
2023-02-26T07:31:09.462Z,1015.8
2023-02-26T07:32:09.339Z,1015.9
2023-02-26T07:33:09.233Z,1015.9
2023-02-26T07:34:09.240Z,1015.9
2023-02-26T07:35:09.265Z,1015.8
2023-02-26T07:36:09.273Z,1015.8
2023-02-26T07:37:09.296Z,1015.7
2023-02-26T07:38:09.315Z,1015.8
2023-02-26T07:39:09.321Z,1015.8
2023-02-26T07:40:09.334Z,1015.8
2023-02-26T07:41:09.332Z,1015.9
2023-02-26T07:42:09.361Z,1015.8
2023-02-26T07:43:09.359Z,1016.1
2023-02-26T07:44:09.375Z,1015.9
2023-02-26T07:45:09.377Z,1015.9
2023-02-26T07:46:09.509Z,1016.0
2023-02-26T07:47:09.408Z,1015.9
2023-02-26T07:48:09.417Z,1016.0
2023-02-26T07:49:09.416Z,1015.9
2023-02-26T07:50:09.428Z,1016.0
2023-02-26T07:51:09.438Z,1016.0
2023-02-26T07:52:09.443Z,1016.0
2023-02-26T07:53:09.444Z,1016.0
2023-02-26T07:54:09.455Z,1016.1
2023-02-26T07:55:09.462Z,1016.0
2023-02-26T07:56:09.465Z,1016.0
2023-02-26T07:57:09.472Z,1016.0
2023-02-26T07:58:09.480Z,1016.0
2023-02-26T07:59:09.498Z,1016.1
2023-02-26T08:00:10.062Z,1016.1
2023-02-26T08:01:09.584Z,1016.1
2023-02-26T08:02:09.511Z,1016.1
2023-02-26T08:03:09.531Z,1016.0
2023-02-26T08:04:09.635Z,1016.2
2023-02-26T08:05:09.538Z,1016.2
2023-02-26T08:06:09.702Z,1016.1
2023-02-26T08:07:09.545Z,1016.2
2023-02-26T08:08:09.548Z,1016.2
2023-02-26T08:09:09.557Z,1016.2
2023-02-26T08:10:09.562Z,1016.2
2023-02-26T08:11:09.572Z,1016.2
2023-02-26T08:12:09.580Z,1016.2
2023-02-26T08:13:09.579Z,1016.2
2023-02-26T08:14:09.587Z,1016.2
2023-02-26T08:15:09.617Z,1016.2
2023-02-26T08:16:09.754Z,1016.1
2023-02-26T08:17:09.627Z,1016.2
2023-02-26T08:18:09.613Z,1016.2
2023-02-26T08:19:09.621Z,1016.3
2023-02-26T08:20:09.651Z,1016.2
2023-02-26T08:21:09.642Z,1016.2
2023-02-26T08:22:09.646Z,1016.3
2023-02-26T08:23:09.653Z,1016.2
2023-02-26T08:24:09.654Z,1016.2
2023-02-26T08:25:09.671Z,1016.3
2023-02-26T08:26:09.673Z,1016.4
2023-02-26T08:27:09.693Z,1016.4
2023-02-26T08:28:09.691Z,1016.4
2023-02-26T08:29:09.703Z,1016.4
2023-02-26T08:30:09.708Z,1016.4
2023-02-26T08:31:09.989Z,1016.5
2023-02-26T08:32:10.051Z,1016.5
2023-02-26T08:33:09.772Z,1016.6
2023-02-26T08:34:09.737Z,1016.6
2023-02-26T08:35:09.742Z,1016.6
2023-02-26T08:36:09.781Z,1016.8
2023-02-26T08:37:09.772Z,1016.7
2023-02-26T08:38:09.812Z,1016.7
2023-02-26T08:39:09.831Z,1016.7
2023-02-26T08:40:09.816Z,1016.8
2023-02-26T08:41:09.811Z,1016.7
2023-02-26T08:42:09.864Z,1016.7
2023-02-26T08:43:09.840Z,1016.7
2023-02-26T08:44:09.824Z,1016.8
2023-02-26T08:45:09.828Z,1016.8
2023-02-26T08:46:09.922Z,1016.9
2023-02-26T08:47:09.824Z,1016.8
2023-02-26T08:48:11.028Z,1016.9
2023-02-26T08:49:09.871Z,1016.9
2023-02-26T08:50:09.902Z,1016.9
2023-02-26T08:51:09.915Z,1016.9
2023-02-26T08:52:09.906Z,1016.9
2023-02-26T08:53:09.935Z,1017.0
2023-02-26T08:54:09.934Z,1017.1
2023-02-26T08:55:09.907Z,1017.0
2023-02-26T08:56:09.914Z,1017.1
2023-02-26T08:57:09.910Z,1017.0
2023-02-26T08:58:09.928Z,1017.0
2023-02-26T08:59:09.938Z,1017.1
2023-02-26T09:00:09.936Z,1017.1
2023-02-26T09:01:09.947Z,1017.0
2023-02-26T09:02:10.301Z,1017.0
2023-02-26T09:03:10.052Z,1017.0
2023-02-26T09:04:09.933Z,1017.1
2023-02-26T09:05:09.962Z,1017.1
2023-02-26T09:06:09.991Z,1017.1
2023-02-26T09:07:09.949Z,1017.2
2023-02-26T09:08:09.953Z,1017.0
2023-02-26T09:09:09.990Z,1017.1
2023-02-26T09:10:09.957Z,1017.2
2023-02-26T09:11:09.978Z,1017.2
2023-02-26T09:12:09.976Z,1017.1
2023-02-26T09:13:09.984Z,1017.2
2023-02-26T09:14:09.985Z,1017.2
2023-02-26T09:15:10.033Z,1017.2
2023-02-26T09:16:10.162Z,1017.2
2023-02-26T09:17:10.026Z,1017.2
2023-02-26T09:18:10.027Z,1017.2
2023-02-26T09:19:10.033Z,1017.2
2023-02-26T09:20:10.045Z,1017.2
2023-02-26T09:21:10.062Z,1017.2
2023-02-26T09:22:10.105Z,1017.2
2023-02-26T09:23:10.079Z,1017.2
2023-02-26T09:24:10.096Z,1017.3
2023-02-26T09:25:10.093Z,1017.2
2023-02-26T09:26:10.104Z,1017.4
2023-02-26T09:27:10.105Z,1017.4
2023-02-26T09:28:10.261Z,1017.4
2023-02-26T09:29:10.124Z,1017.3
2023-02-26T09:30:10.142Z,1017.3
2023-02-26T09:31:10.340Z,1017.4
2023-02-26T09:32:10.449Z,1017.4
2023-02-26T09:33:10.156Z,1017.3
2023-02-26T09:34:11.720Z,1017.5
2023-02-26T09:35:10.168Z,1017.4
2023-02-26T09:36:10.164Z,1017.5
2023-02-26T09:37:10.167Z,1017.4
2023-02-26T09:38:10.184Z,1017.4
2023-02-26T09:39:10.185Z,1017.4
2023-02-26T09:40:10.194Z,1017.4
2023-02-26T09:41:10.226Z,1017.5
2023-02-26T09:42:10.209Z,1017.4
2023-02-26T09:43:10.205Z,1017.4
2023-02-26T09:44:10.212Z,1017.4
2023-02-26T09:45:10.231Z,1017.4
2023-02-26T09:46:10.369Z,1017.5
2023-02-26T09:47:10.230Z,1017.5
2023-02-26T09:48:10.233Z,1017.5
2023-02-26T09:49:10.244Z,1017.5
2023-02-26T09:50:10.253Z,1017.5
2023-02-26T09:51:10.248Z,1017.5
2023-02-26T09:52:10.261Z,1017.6
2023-02-26T09:53:10.267Z,1017.6
2023-02-26T09:54:10.277Z,1017.6
2023-02-26T09:55:10.286Z,1017.7
2023-02-26T09:56:10.297Z,1017.6
2023-02-26T09:57:10.311Z,1017.6
2023-02-26T09:58:10.310Z,1017.6
2023-02-26T09:59:10.324Z,1017.6
2023-02-26T10:00:10.317Z,1017.7
2023-02-26T10:01:10.343Z,1017.6
2023-02-26T10:02:10.473Z,1017.6
2023-02-26T10:03:10.486Z,1017.7
2023-02-26T10:04:10.502Z,1017.7
2023-02-26T10:05:10.369Z,1017.7
2023-02-26T10:06:10.380Z,1017.6
2023-02-26T10:07:10.392Z,1017.7
2023-02-26T10:08:10.390Z,1017.7
2023-02-26T10:09:10.409Z,1017.7
2023-02-26T10:10:10.418Z,1017.7
2023-02-26T10:11:10.432Z,1017.7
2023-02-26T10:12:10.435Z,1017.8
2023-02-26T10:13:10.434Z,1017.7
2023-02-26T10:14:10.448Z,1017.7
2023-02-26T10:15:10.457Z,1017.7
2023-02-26T10:16:12.800Z,1017.7
2023-02-26T10:17:10.449Z,1017.7
2023-02-26T10:18:10.488Z,1017.7
2023-02-26T10:19:10.468Z,1017.7
2023-02-26T10:20:10.487Z,1017.8
2023-02-26T10:21:10.492Z,1017.7
2023-02-26T10:22:10.484Z,1017.8
2023-02-26T10:23:10.492Z,1017.8
2023-02-26T10:24:10.496Z,1017.8
2023-02-26T10:25:10.510Z,1017.8
2023-02-26T10:26:10.523Z,1017.7
2023-02-26T10:27:10.534Z,1017.8
2023-02-26T10:28:10.539Z,1017.8
2023-02-26T10:29:10.562Z,1017.8
2023-02-26T10:30:10.558Z,1017.8
2023-02-26T10:31:10.747Z,1017.8
2023-02-26T10:32:10.859Z,1017.8
2023-02-26T10:33:10.574Z,1017.9
2023-02-26T10:34:10.580Z,1017.9
2023-02-26T10:35:10.583Z,1017.8
2023-02-26T10:36:10.588Z,1017.9
2023-02-26T10:37:10.602Z,1017.8
2023-02-26T10:38:10.606Z,1017.9
2023-02-26T10:39:10.616Z,1017.9
2023-02-26T10:40:10.617Z,1017.9
2023-02-26T10:41:10.628Z,1017.9
2023-02-26T10:42:10.636Z,1017.8
2023-02-26T10:43:10.642Z,1017.8
2023-02-26T10:44:10.644Z,1017.9
2023-02-26T10:45:10.670Z,1017.9
2023-02-26T10:46:10.805Z,1018.0
2023-02-26T10:47:10.659Z,1018.0
2023-02-26T10:48:10.677Z,1017.9
2023-02-26T10:49:10.684Z,1018.0
2023-02-26T10:50:10.683Z,1018.0
2023-02-26T10:51:10.701Z,1018.0
2023-02-26T10:52:10.701Z,1018.0
2023-02-26T10:53:10.709Z,1018.0
2023-02-26T10:54:10.711Z,1018.0
2023-02-26T10:55:10.727Z,1018.0
2023-02-26T10:56:10.730Z,1018.1
2023-02-26T10:57:10.743Z,1018.1
2023-02-26T10:58:10.730Z,1018.0
2023-02-26T10:59:10.739Z,1018.1
2023-02-26T11:00:10.751Z,1018.1
2023-02-26T11:01:10.815Z,1018.1
2023-02-26T11:02:10.803Z,1018.1
2023-02-26T11:03:10.778Z,1018.1
2023-02-26T11:04:10.779Z,1018.2
2023-02-26T11:05:10.795Z,1018.1
2023-02-26T11:06:10.796Z,1018.2
2023-02-26T11:07:10.812Z,1018.2
2023-02-26T11:08:10.828Z,1018.3
2023-02-26T11:09:10.822Z,1018.2
2023-02-26T11:10:10.830Z,1018.2
2023-02-26T11:11:10.834Z,1018.3
2023-02-26T11:12:10.846Z,1018.3
2023-02-26T11:13:10.856Z,1018.2
2023-02-26T11:14:10.871Z,1018.2
2023-02-26T11:15:10.864Z,1018.3
2023-02-26T11:16:10.953Z,1018.4
2023-02-26T11:17:10.872Z,1018.3
2023-02-26T11:18:10.909Z,1018.2
2023-02-26T11:19:10.885Z,1018.2
2023-02-26T11:20:10.902Z,1018.1
2023-02-26T11:21:11.006Z,1018.2
2023-02-26T11:22:10.906Z,1018.3
2023-02-26T11:23:10.906Z,1018.3
2023-02-26T11:24:10.912Z,1018.3
2023-02-26T11:25:10.917Z,1018.3
2023-02-26T11:26:10.929Z,1018.3
2023-02-26T11:27:10.932Z,1018.4
2023-02-26T11:28:10.971Z,1018.4
2023-02-26T11:29:10.950Z,1018.3
2023-02-26T11:30:10.956Z,1018.4
2023-02-26T11:31:11.390Z,1018.4
2023-02-26T11:32:11.158Z,1018.5
2023-02-26T11:33:10.984Z,1018.5
2023-02-26T11:34:11.029Z,1018.4
2023-02-26T11:35:11.005Z,1018.3
2023-02-26T11:36:11.005Z,1018.4
2023-02-26T11:37:11.016Z,1018.4
2023-02-26T11:38:11.115Z,1018.4
2023-02-26T11:39:11.022Z,1018.5
2023-02-26T11:40:11.048Z,1018.5
2023-02-26T11:41:11.029Z,1018.5
2023-02-26T11:42:11.037Z,1018.4
2023-02-26T11:43:11.044Z,1018.5
2023-02-26T11:44:11.050Z,1018.4
2023-02-26T11:45:11.058Z,1018.4
2023-02-26T11:46:11.190Z,1018.4
2023-02-26T11:47:11.071Z,1018.4
2023-02-26T11:48:11.077Z,1018.4
2023-02-26T11:49:11.079Z,1018.4
2023-02-26T11:50:11.084Z,1018.4
2023-02-26T11:51:11.100Z,1018.4
2023-02-26T11:52:11.114Z,1018.3
2023-02-26T11:53:11.119Z,1018.4
2023-02-26T11:54:11.117Z,1018.4
2023-02-26T11:55:11.129Z,1018.3
2023-02-26T11:56:11.137Z,1018.3
2023-02-26T11:57:11.131Z,1018.3
2023-02-26T11:58:11.140Z,1018.2
2023-02-26T11:59:11.143Z,1018.4
2023-02-26T12:00:11.229Z,1018.3
2023-02-26T12:01:11.161Z,1018.3
2023-02-26T12:02:11.177Z,1018.5
2023-02-26T12:03:11.169Z,1018.4
2023-02-26T12:04:11.181Z,1018.4
2023-02-26T12:05:11.180Z,1018.4
2023-02-26T12:06:11.189Z,1018.4
2023-02-26T12:07:11.196Z,1018.4
2023-02-26T12:08:11.196Z,1018.3
2023-02-26T12:09:11.203Z,1018.3
2023-02-26T12:10:11.223Z,1018.3
2023-02-26T12:11:13.772Z,1018.4
2023-02-26T12:12:11.231Z,1018.3
2023-02-26T12:13:11.341Z,1018.3
2023-02-26T12:14:11.374Z,1018.4
2023-02-26T12:15:11.430Z,1018.4
2023-02-26T12:16:11.367Z,1018.3
2023-02-26T12:17:11.274Z,1018.3
2023-02-26T12:18:11.276Z,1018.3
2023-02-26T12:19:11.284Z,1018.3
2023-02-26T12:20:11.453Z,1018.4
2023-02-26T12:21:11.294Z,1018.5
2023-02-26T12:22:11.288Z,1018.3
2023-02-26T12:23:11.297Z,1018.3
2023-02-26T12:24:11.366Z,1018.4
2023-02-26T12:25:11.315Z,1018.3
2023-02-26T12:26:11.316Z,1018.3
2023-02-26T12:27:11.363Z,1018.2
2023-02-26T12:28:11.340Z,1018.3
2023-02-26T12:29:11.378Z,1018.3
2023-02-26T12:30:11.531Z,1018.2
2023-02-26T12:31:11.589Z,1018.3
2023-02-26T12:32:11.618Z,1018.3
2023-02-26T12:33:11.416Z,1018.3
2023-02-26T12:34:11.409Z,1018.3
2023-02-26T12:35:11.409Z,1018.3
2023-02-26T12:36:11.391Z,1018.3
2023-02-26T12:37:11.445Z,1018.3
2023-02-26T12:38:15.238Z,1018.4
2023-02-26T12:39:11.481Z,1018.3
2023-02-26T12:40:11.564Z,1018.4
2023-02-26T12:41:11.483Z,1018.4
2023-02-26T12:42:11.489Z,1018.3
2023-02-26T12:43:11.469Z,1018.3
2023-02-26T12:44:11.483Z,1018.4
2023-02-26T12:45:11.497Z,1018.3
2023-02-26T12:46:11.800Z,1018.5
2023-02-26T12:47:11.506Z,1018.4
2023-02-26T12:48:11.549Z,1018.3
2023-02-26T12:49:11.526Z,1018.3
2023-02-26T12:50:11.534Z,1018.3
2023-02-26T12:51:11.583Z,1018.3
2023-02-26T12:52:11.526Z,1018.2
2023-02-26T12:53:11.529Z,1018.3
2023-02-26T12:54:11.513Z,1018.1
2023-02-26T12:55:11.552Z,1018.1
2023-02-26T12:56:11.557Z,1018.2
2023-02-26T12:57:11.534Z,1018.2
2023-02-26T12:58:11.542Z,1018.1
2023-02-26T12:59:11.547Z,1018.3
2023-02-26T13:00:11.568Z,1018.2